Colorado Springs, CO (80942)

9:11 AM MDT on August 30, 2016 (GMT -0600)
Crown Hill Mesa | | Change Station

Elev 6171 ft 38.82 °N, 104.85 °W | Updated 6 seconds ago

Mostly Cloudy
Mostly Cloudy
57.9 °F
Feels Like 57.9 °F
N
0.0
Wind Variable Wind from WSW
Gusts 0.0 mph

Today
High -- | Low -- °F
--% Chance of Precip.
Yesterday
High -- | Low -- °F
Precip. -- in
Pressure 30.23 in
Visibility 10.0 miles
Clouds Few 6000 ft
Mostly Cloudy 10000 ft
Mostly Cloudy 18000 ft
Dew Point 50 °F
Humidity 74%
Rainfall 0.00 in
Snow Depth Not available.
6:27 AM 7:31 PM
Waning Crescent, 3% visible
METAR KCOS 301454Z 00000KT 10SM FEW060 BKN100 BKN180 18/08 A3041 RMK AO2 SLP235 T01780083 51004
Pressure 30.23 in
Visibility 10.0 miles
Clouds Few 6000 ft
Mostly Cloudy 10000 ft
Mostly Cloudy 18000 ft
Dew Point 50 °F
Humidity 74%
Rainfall 0.00 in
Snow Depth Not available.
6:27 AM 7:31 PM
Waning Crescent, 3% visible
METAR KCOS 301454Z 00000KT 10SM FEW060 BKN100 BKN180 18/08 A3041 RMK AO2 SLP235 T01780083 51004

10-Day Weather Forecast

Almanac

Astronomy

Aug. 30, 2016 Rise Set
Actual Time
Civil Twilight
Nautical Twilight
Astronomical Twilight
Moon
Length of Visible Light
Length of Day
Tomorrow will be .
, % of the Moon is Illuminated

Today's Extremes

State Highs State Lows

Community

WunderPhotos

Upload Photos

1,935,853 photos uploaded!

WunderBlog® & News

Nearby

Air Quality

  Air Quality AQ Index Pollutant
Not available.

Snow Depth

Station Depth Elevation

Earthquake Activity

City Distance Mag. Time & Date
Minimum magnitude displayed is 2.5.

Coastal Water Temperatures

Place Temperature

Stations

Nearby Weather Stations

Station Location Temp. Windchill Dew Point Humidity Wind Precip. Elev Updated Type
                   

Watches & Warnings

There are currently no watches in effect.